createdAt,value
2022-11-02T00:01:53.472Z,99.90
2022-11-02T00:04:22.229Z,99.90
2022-11-02T00:06:50.868Z,99.90
2022-11-02T00:09:20.964Z,1.00
2022-11-02T00:11:49.658Z,1.00
2022-11-02T00:14:18.338Z,1.00
2022-11-02T00:16:47.064Z,1.00
2022-11-02T00:19:15.944Z,1.00
2022-11-02T00:21:44.935Z,1.00
2022-11-02T00:24:14.179Z,1.00
2022-11-02T00:26:44.321Z,1.00
2022-11-02T00:29:12.955Z,1.00
2022-11-02T00:31:41.586Z,1.00
2022-11-02T00:34:10.304Z,1.00
2022-11-02T00:36:38.987Z,1.00
2022-11-02T00:39:07.661Z,1.00
2022-11-02T00:41:36.349Z,1.00
2022-11-02T00:44:06.629Z,1.00
2022-11-02T00:46:35.306Z,1.00
2022-11-02T00:49:04.106Z,1.00
2022-11-02T00:51:32.839Z,1.00
2022-11-02T00:54:01.496Z,1.00
2022-11-02T00:56:30.137Z,1.00
2022-11-02T00:58:59.166Z,1.00
2022-11-02T01:01:29.397Z,1.00
2022-11-02T01:03:58.397Z,1.00
2022-11-02T01:06:27.356Z,1.00
2022-11-02T01:08:56.326Z,1.00
2022-11-02T01:11:26.003Z,1.00
2022-11-02T01:13:54.992Z,1.00
2022-11-02T01:16:23.719Z,1.00
2022-11-02T01:18:55.756Z,1.00
2022-11-02T01:21:25.053Z,1.00
2022-11-02T01:23:54.026Z,1.00
2022-11-02T01:26:22.706Z,1.00
2022-11-02T01:28:51.374Z,1.00
2022-11-02T01:31:19.982Z,1.00
2022-11-02T01:33:48.944Z,1.00
2022-11-02T01:38:51.293Z,1.00
2022-11-02T01:41:20.250Z,1.00
2022-11-02T01:43:51.927Z,1.00
2022-11-02T01:46:24.075Z,1.00
2022-11-02T01:48:57.780Z,1.00
2022-11-02T01:51:31.892Z,1.00
2022-11-02T01:54:06.766Z,1.00
2022-11-02T01:56:37.057Z,1.00
2022-11-02T01:59:10.507Z,1.00
2022-11-02T02:01:39.239Z,1.00
2022-11-02T02:04:07.986Z,1.00
2022-11-02T02:06:38.688Z,1.00
2022-11-02T02:09:09.220Z,11.70
2022-11-02T02:11:39.513Z,12.40
2022-11-02T02:14:12.375Z,1.00
2022-11-02T02:16:55.327Z,1.00
2022-11-02T02:19:34.066Z,1.00
2022-11-02T02:22:36.687Z,1.00
2022-11-02T02:25:23.985Z,1.00
2022-11-02T02:28:07.193Z,1.00
2022-11-02T02:30:42.225Z,1.00
2022-11-02T02:33:15.303Z,1.00
2022-11-02T02:35:48.349Z,13.00
2022-11-02T02:38:23.905Z,48.00
2022-11-02T02:40:59.485Z,88.50
2022-11-02T02:43:38.519Z,99.90
2022-11-02T02:46:10.982Z,99.90
2022-11-02T02:48:42.764Z,99.90
2022-11-02T02:51:16.048Z,99.90
2022-11-02T02:53:47.650Z,99.90
2022-11-02T02:56:20.289Z,99.90
2022-11-02T02:58:54.153Z,99.90
2022-11-02T03:01:23.319Z,99.90
2022-11-02T03:03:52.468Z,99.90
2022-11-02T03:06:24.898Z,99.90
2022-11-02T03:09:04.993Z,99.90
2022-11-02T03:11:35.310Z,98.90
2022-11-02T03:14:21.580Z,79.40
2022-11-02T03:17:07.455Z,99.90
2022-11-02T03:19:45.266Z,99.90
2022-11-02T03:22:24.311Z,99.90
2022-11-02T03:25:01.684Z,99.90
2022-11-02T03:27:39.774Z,62.80
2022-11-02T03:30:14.620Z,65.60
2022-11-02T03:32:50.354Z,55.30
2022-11-02T03:35:23.100Z,53.10
2022-11-02T03:37:57.540Z,63.30
2022-11-02T03:40:29.994Z,64.10
2022-11-02T03:43:00.023Z,46.10
2022-11-02T03:45:34.732Z,25.20
2022-11-02T03:48:05.829Z,36.80
2022-11-02T03:50:36.270Z,50.60
2022-11-02T03:53:14.286Z,76.00
2022-11-02T03:55:47.697Z,67.00
2022-11-02T03:58:16.387Z,30.70
2022-11-02T04:00:53.261Z,23.50
2022-11-02T04:03:24.597Z,46.70
2022-11-02T04:05:53.314Z,29.30
2022-11-02T04:08:29.803Z,3.90
2022-11-02T04:11:16.028Z,1.00
2022-11-02T04:14:02.137Z,1.20
2022-11-02T04:16:32.296Z,14.00
2022-11-02T04:19:18.531Z,36.90
2022-11-02T04:22:01.227Z,27.00
2022-11-02T04:24:47.371Z,41.90
2022-11-02T04:27:20.522Z,61.70
2022-11-02T04:29:49.483Z,92.50
2022-11-02T04:32:40.261Z,91.20
2022-11-02T04:35:09.455Z,66.90
2022-11-02T04:37:58.996Z,43.10
2022-11-02T04:40:28.395Z,36.00
2022-11-02T04:42:57.028Z,13.50
2022-11-02T04:45:25.669Z,1.00
2022-11-02T04:48:02.205Z,1.00
2022-11-02T04:50:31.931Z,1.00
2022-11-02T04:53:01.609Z,1.00
2022-11-02T04:55:30.759Z,1.00
2022-11-02T04:57:59.492Z,1.00
2022-11-02T05:00:28.300Z,1.00
2022-11-02T05:02:58.461Z,1.00
2022-11-02T05:05:27.304Z,1.00
2022-11-02T05:07:55.951Z,1.00
2022-11-02T05:10:24.704Z,1.00
2022-11-02T05:12:58.955Z,1.00
2022-11-02T05:15:27.762Z,1.00
2022-11-02T05:17:57.935Z,1.00
2022-11-02T05:20:26.631Z,1.00
2022-11-02T05:22:55.279Z,1.00
2022-11-02T05:25:24.175Z,1.00
2022-11-02T05:27:52.826Z,1.00
2022-11-02T05:30:21.495Z,1.00
2022-11-02T05:32:50.132Z,1.00
2022-11-02T05:35:20.149Z,1.00
2022-11-02T05:37:48.822Z,1.00
2022-11-02T05:40:17.601Z,1.00
2022-11-02T05:42:47.362Z,1.00
2022-11-02T05:45:20.521Z,1.00
2022-11-02T05:47:52.459Z,1.00
2022-11-02T05:50:23.087Z,1.00
2022-11-02T05:52:51.773Z,1.00
2022-11-02T05:55:20.457Z,1.00
2022-11-02T05:57:53.708Z,1.00
2022-11-02T06:00:24.408Z,1.00
2022-11-02T06:02:58.455Z,1.00
2022-11-02T06:05:28.754Z,1.00
2022-11-02T06:08:00.874Z,1.00
2022-11-02T06:10:30.796Z,1.00
2022-11-02T06:13:00.666Z,1.00
2022-11-02T06:15:33.671Z,1.00
2022-11-02T06:18:02.345Z,1.00
2022-11-02T06:20:32.474Z,1.00
2022-11-02T06:23:01.245Z,5.20
2022-11-02T06:25:30.485Z,4.60
2022-11-02T06:27:59.507Z,1.00
2022-11-02T06:30:28.627Z,1.00
2022-11-02T06:32:58.670Z,1.00
2022-11-02T06:35:31.642Z,1.00
2022-11-02T06:38:00.430Z,1.00
2022-11-02T06:40:29.514Z,1.00
2022-11-02T06:45:47.808Z,71.80
2022-11-02T06:48:16.934Z,96.60
2022-11-02T06:50:47.173Z,99.90
2022-11-02T06:53:15.944Z,99.90
2022-11-02T06:55:44.665Z,23.00
2022-11-02T06:58:13.346Z,99.90
2022-11-02T07:00:42.053Z,1.00
2022-11-02T07:03:12.441Z,1.00
2022-11-02T07:05:41.085Z,1.00
2022-11-02T07:08:15.546Z,99.90
2022-11-02T07:10:45.472Z,99.90
2022-11-02T07:13:25.040Z,99.90
2022-11-02T07:16:00.635Z,99.90
2022-11-02T07:18:30.049Z,99.90
2022-11-02T07:21:02.966Z,68.90
2022-11-02T07:23:35.605Z,34.30
2022-11-02T07:26:06.744Z,1.00
2022-11-02T07:28:37.067Z,1.00
2022-11-02T07:31:06.356Z,1.00
2022-11-02T07:33:35.885Z,1.00
2022-11-02T07:36:06.752Z,1.00
2022-11-02T07:38:38.763Z,1.00
2022-11-02T07:41:08.299Z,1.00
2022-11-02T07:43:41.446Z,1.00
2022-11-02T07:46:31.997Z,1.00
2022-11-02T07:49:00.800Z,1.00
2022-11-02T07:51:29.422Z,1.00
2022-11-02T07:54:01.247Z,1.00
2022-11-02T07:56:29.900Z,1.00
2022-11-02T07:58:58.495Z,1.00
2022-11-02T08:01:27.150Z,1.00
2022-11-02T08:03:56.729Z,1.00
2022-11-02T08:06:25.309Z,1.00
2022-11-02T08:08:53.828Z,1.00
2022-11-02T08:11:24.180Z,1.00
2022-11-02T08:13:52.785Z,1.00
2022-11-02T08:16:21.448Z,1.00
2022-11-02T08:18:50.048Z,1.00
2022-11-02T08:21:18.699Z,1.00
2022-11-02T08:23:47.288Z,1.00
2022-11-02T08:26:15.942Z,1.00
2022-11-02T08:28:46.293Z,1.00
2022-11-02T08:31:17.488Z,1.00
2022-11-02T08:33:46.622Z,1.00
2022-11-02T08:36:15.234Z,1.00
2022-11-02T08:38:43.894Z,1.00
2022-11-02T08:41:12.597Z,1.00
2022-11-02T08:43:41.238Z,1.00
2022-11-02T08:46:15.793Z,1.00
2022-11-02T08:48:45.570Z,1.00
2022-11-02T08:51:14.388Z,1.00
2022-11-02T08:53:47.097Z,1.00
2022-11-02T08:56:18.975Z,1.00
2022-11-02T08:58:47.578Z,1.00
2022-11-02T09:01:17.997Z,1.00
2022-11-02T09:03:46.701Z,1.00
2022-11-02T09:06:15.311Z,1.00
2022-11-02T09:08:44.026Z,1.00
2022-11-02T09:11:12.775Z,1.00
2022-11-02T09:13:41.542Z,1.00
2022-11-02T09:16:10.594Z,1.00
2022-11-02T09:18:40.746Z,1.00
2022-11-02T09:21:09.432Z,1.00
2022-11-02T09:23:38.007Z,1.00
2022-11-02T09:26:06.800Z,1.00
2022-11-02T09:28:35.510Z,1.00
2022-11-02T09:31:09.062Z,1.00
2022-11-02T09:33:41.675Z,1.00
2022-11-02T09:36:11.048Z,1.00
2022-11-02T09:38:39.659Z,1.00
2022-11-02T09:41:15.806Z,1.00
2022-11-02T09:43:55.888Z,1.00
2022-11-02T09:46:27.886Z,1.00
2022-11-02T09:49:01.385Z,1.00
2022-11-02T09:51:34.889Z,1.00
2022-11-02T09:54:13.360Z,1.00
2022-11-02T09:56:47.040Z,1.00
2022-11-02T09:59:17.536Z,1.00
2022-11-02T10:01:59.974Z,1.00
2022-11-02T10:05:00.028Z,1.00
2022-11-02T10:07:44.689Z,1.00
2022-11-02T10:10:16.727Z,1.00
2022-11-02T10:12:55.730Z,1.00
2022-11-02T10:15:30.125Z,1.00
2022-11-02T10:18:01.613Z,1.00
2022-11-02T10:20:37.615Z,1.00
2022-11-02T10:23:09.643Z,1.00
2022-11-02T10:25:39.531Z,1.00
2022-11-02T10:28:15.092Z,1.00
2022-11-02T10:30:44.796Z,1.00
2022-11-02T10:33:16.628Z,1.00
2022-11-02T10:36:16.954Z,1.00
2022-11-02T10:38:50.553Z,1.00
2022-11-02T10:41:32.121Z,1.00
2022-11-02T10:44:21.449Z,1.00
2022-11-02T10:47:03.730Z,1.00
2022-11-02T10:50:12.402Z,1.00
2022-11-02T10:52:45.325Z,1.00
2022-11-02T10:55:22.778Z,1.00
2022-11-02T10:57:52.794Z,1.00
2022-11-02T11:00:29.367Z,1.00
2022-11-02T11:03:06.421Z,1.00
2022-11-02T11:05:36.979Z,1.00
2022-11-02T11:08:08.545Z,1.00
2022-11-02T11:10:39.891Z,1.00
2022-11-02T11:16:14.786Z,1.00
2022-11-02T11:21:43.404Z,1.00
2022-11-02T11:24:27.162Z,1.00
2022-11-02T11:27:04.446Z,1.00
2022-11-02T11:29:34.476Z,1.00
2022-11-02T11:32:05.271Z,1.00
2022-11-02T11:34:37.290Z,1.00
2022-11-02T11:37:09.844Z,1.00
2022-11-02T11:39:42.076Z,1.00
2022-11-02T11:42:18.868Z,1.00
2022-11-02T11:44:58.421Z,1.00
2022-11-02T11:47:34.345Z,1.00
2022-11-02T11:50:20.303Z,1.00
2022-11-02T11:53:16.467Z,1.00
2022-11-02T11:55:51.533Z,1.00
2022-11-02T11:58:23.105Z,1.00
2022-11-02T12:01:10.484Z,1.00
2022-11-02T12:03:53.460Z,1.00
2022-11-02T12:06:31.379Z,1.00
2022-11-02T12:09:04.997Z,1.00
2022-11-02T12:11:54.157Z,1.00
2022-11-02T12:14:47.265Z,1.00
2022-11-02T12:17:38.954Z,1.00
2022-11-02T12:20:28.423Z,1.00
2022-11-02T12:23:06.367Z,1.00
2022-11-02T12:25:50.290Z,1.00
2022-11-02T12:28:34.072Z,1.00
2022-11-02T12:31:16.151Z,1.00
2022-11-02T12:33:56.574Z,1.00
2022-11-02T12:37:11.107Z,1.00
2022-11-02T12:39:48.571Z,1.00
2022-11-02T12:42:29.254Z,1.00
2022-11-02T12:45:10.911Z,1.00
2022-11-02T12:47:54.549Z,1.00
2022-11-02T12:50:30.629Z,1.00
2022-11-02T12:53:18.586Z,1.00
2022-11-02T12:55:53.329Z,1.00
2022-11-02T12:58:27.552Z,1.00
2022-11-02T13:01:02.944Z,1.00
2022-11-02T13:03:40.888Z,1.00
2022-11-02T13:06:14.795Z,1.00
2022-11-02T13:08:48.610Z,1.00
2022-11-02T13:11:23.948Z,1.00
2022-11-02T13:13:57.088Z,1.00
2022-11-02T13:16:39.915Z,1.00
2022-11-02T13:19:17.195Z,1.00
2022-11-02T13:21:54.259Z,1.00
2022-11-02T13:24:31.851Z,1.00
2022-11-02T13:29:59.588Z,1.00
2022-11-02T13:32:35.061Z,1.00
2022-11-02T13:35:14.326Z,1.00
2022-11-02T13:37:47.935Z,1.00
2022-11-02T13:40:23.299Z,1.00
2022-11-02T13:43:24.515Z,1.00
2022-11-02T13:46:18.169Z,1.00
2022-11-02T13:49:02.612Z,1.00
2022-11-02T13:51:38.217Z,1.00
2022-11-02T13:54:14.337Z,1.00
2022-11-02T13:56:45.740Z,1.00
2022-11-02T13:59:22.397Z,1.00
2022-11-02T14:01:54.574Z,1.00
2022-11-02T14:04:25.752Z,1.00
2022-11-02T14:06:58.458Z,1.00
2022-11-02T14:09:35.013Z,1.00
2022-11-02T14:12:29.775Z,1.00
2022-11-02T14:15:50.080Z,1.00
2022-11-02T14:18:32.326Z,1.00
2022-11-02T14:21:42.444Z,1.00
2022-11-02T14:24:49.542Z,1.00
2022-11-02T14:27:32.122Z,1.00
2022-11-02T14:30:00.961Z,1.00
2022-11-02T14:32:43.166Z,1.00
2022-11-02T14:35:28.454Z,1.00
2022-11-02T14:38:17.680Z,1.00
2022-11-02T14:40:55.711Z,1.00
2022-11-02T14:43:57.533Z,1.00
2022-11-02T14:46:41.338Z,1.00
2022-11-02T14:49:20.403Z,1.00
2022-11-02T14:52:04.194Z,1.00
2022-11-02T14:54:40.907Z,1.00
2022-11-02T14:57:21.777Z,1.00
2022-11-02T14:59:53.546Z,1.00
2022-11-02T15:02:25.801Z,1.00
2022-11-02T15:04:57.590Z,1.00
2022-11-02T15:07:35.014Z,1.00
2022-11-02T15:10:08.373Z,1.00
2022-11-02T15:12:41.097Z,1.00
2022-11-02T15:15:33.149Z,1.00
2022-11-02T15:18:24.042Z,1.00
2022-11-02T15:21:24.380Z,1.00
2022-11-02T15:24:16.612Z,1.00
2022-11-02T15:26:59.408Z,1.00
2022-11-02T15:29:39.283Z,1.00
2022-11-02T15:32:15.978Z,1.00
2022-11-02T15:34:51.446Z,1.00
2022-11-02T15:37:22.036Z,1.00
2022-11-02T15:39:51.775Z,1.00
2022-11-02T15:42:34.943Z,1.00
2022-11-02T15:45:46.770Z,1.00
2022-11-02T15:48:44.353Z,1.00
2022-11-02T15:51:43.396Z,1.00
2022-11-02T15:54:45.741Z,1.00
2022-11-02T15:57:27.343Z,1.00
2022-11-02T16:00:23.770Z,1.00
2022-11-02T16:03:06.538Z,1.00
2022-11-02T16:05:52.642Z,1.00
2022-11-02T16:08:30.550Z,1.00
2022-11-02T16:11:16.355Z,1.00
2022-11-02T16:14:15.550Z,1.00
2022-11-02T16:16:52.499Z,1.00
2022-11-02T16:19:22.462Z,1.00
2022-11-02T16:21:54.014Z,1.00
2022-11-02T16:24:26.012Z,1.00
2022-11-02T16:26:56.151Z,1.00
2022-11-02T16:29:32.055Z,1.00
2022-11-02T16:32:02.685Z,1.00
2022-11-02T16:34:33.939Z,1.00
2022-11-02T16:37:10.099Z,1.00
2022-11-02T16:39:42.288Z,1.00
2022-11-02T16:42:16.760Z,1.00
2022-11-02T16:44:58.015Z,1.00
2022-11-02T16:47:38.958Z,1.00
2022-11-02T16:50:21.480Z,4.00
2022-11-02T16:53:01.901Z,4.90
2022-11-02T16:55:42.701Z,21.90
2022-11-02T16:58:17.810Z,31.90
2022-11-02T17:00:58.349Z,54.50
2022-11-02T17:03:32.288Z,71.30
2022-11-02T17:06:03.701Z,70.10
2022-11-02T17:08:36.176Z,29.30
2022-11-02T17:11:07.461Z,41.80
2022-11-02T17:13:39.216Z,56.80
2022-11-02T17:16:12.141Z,38.10
2022-11-02T17:18:42.391Z,70.80
2022-11-02T17:21:32.089Z,95.20
2022-11-02T17:24:01.148Z,93.60
2022-11-02T17:26:39.253Z,99.90
2022-11-02T17:29:33.926Z,99.90
2022-11-02T17:32:04.996Z,99.90
2022-11-02T17:34:36.727Z,99.90
2022-11-02T17:37:06.732Z,99.90
2022-11-02T17:39:35.520Z,99.90
2022-11-02T17:42:22.979Z,99.90
2022-11-02T17:44:52.053Z,99.90
2022-11-02T17:47:21.245Z,99.90
2022-11-02T17:49:51.747Z,99.90
2022-11-02T17:52:20.539Z,99.90
2022-11-02T17:54:49.774Z,99.90
2022-11-02T17:57:19.411Z,99.90
2022-11-02T17:59:48.563Z,99.90
2022-11-02T18:02:18.139Z,1.00
2022-11-02T18:04:47.192Z,1.00
2022-11-02T18:07:17.903Z,1.00
2022-11-02T18:09:47.148Z,1.00
2022-11-02T18:12:17.489Z,1.00
2022-11-02T18:14:47.242Z,1.00
2022-11-02T18:17:17.685Z,42.10
2022-11-02T18:19:46.653Z,66.30
2022-11-02T18:22:17.292Z,1.00
2022-11-02T18:24:46.537Z,99.90
2022-11-02T18:27:15.640Z,1.00
2022-11-02T18:29:44.364Z,1.00
2022-11-02T18:32:13.689Z,1.00
2022-11-02T18:34:42.432Z,1.00
2022-11-02T18:37:11.403Z,1.00
2022-11-02T18:39:43.334Z,1.00
2022-11-02T18:42:12.419Z,1.00
2022-11-02T18:44:41.806Z,50.70
2022-11-02T18:47:11.712Z,99.50
2022-11-02T18:49:42.523Z,1.00
2022-11-02T18:52:11.564Z,1.00
2022-11-02T18:54:42.380Z,1.00
2022-11-02T18:57:12.390Z,1.00
2022-11-02T18:59:41.642Z,1.00
2022-11-02T19:02:13.071Z,42.00
2022-11-02T19:04:42.531Z,1.00
2022-11-02T19:07:29.480Z,1.00
2022-11-02T19:10:03.673Z,99.90
2022-11-02T19:12:34.630Z,99.90
2022-11-02T19:15:04.199Z,99.90
2022-11-02T19:17:33.681Z,99.90
2022-11-02T19:20:02.910Z,99.90
2022-11-02T19:22:32.374Z,99.90
2022-11-02T19:25:04.286Z,99.90
2022-11-02T19:27:33.803Z,99.90
2022-11-02T19:30:03.243Z,99.90
2022-11-02T19:32:33.417Z,99.90
2022-11-02T19:35:02.641Z,99.90
2022-11-02T19:37:34.479Z,99.90
2022-11-02T19:40:07.180Z,99.90
2022-11-02T19:42:36.562Z,99.90
2022-11-02T19:45:06.207Z,99.90
2022-11-02T19:47:36.252Z,99.90
2022-11-02T19:50:08.842Z,6.10
2022-11-02T19:52:38.010Z,99.90
2022-11-02T19:55:09.795Z,76.20
2022-11-02T19:57:38.923Z,99.90
2022-11-02T20:00:09.512Z,99.90
2022-11-02T20:02:39.059Z,99.90
2022-11-02T20:05:10.022Z,99.90
2022-11-02T20:07:39.284Z,99.90
2022-11-02T20:10:10.966Z,99.90
2022-11-02T20:12:40.453Z,99.90
2022-11-02T20:15:12.049Z,99.90
2022-11-02T20:17:52.357Z,99.90
2022-11-02T20:20:29.644Z,1.00
2022-11-02T20:22:58.633Z,10.60
2022-11-02T20:25:29.229Z,1.00
2022-11-02T20:27:58.784Z,1.00
2022-11-02T20:30:28.632Z,99.90
2022-11-02T20:32:57.844Z,99.90
2022-11-02T20:35:27.163Z,99.90
2022-11-02T20:37:58.906Z,99.90
2022-11-02T20:40:41.736Z,99.90
2022-11-02T20:43:15.172Z,99.90
2022-11-02T20:45:47.527Z,99.90
2022-11-02T20:48:19.739Z,99.90
2022-11-02T20:50:50.397Z,99.90
2022-11-02T20:53:22.228Z,99.90
2022-11-02T20:55:54.307Z,99.90
2022-11-02T20:58:29.683Z,99.90
2022-11-02T21:01:01.985Z,99.90
2022-11-02T21:03:32.478Z,99.90
2022-11-02T21:06:07.479Z,99.90
2022-11-02T21:11:30.001Z,99.90
2022-11-02T21:13:58.222Z,99.90
2022-11-02T21:16:27.255Z,99.90
2022-11-02T21:18:57.699Z,99.90
2022-11-02T21:21:26.970Z,99.90
2022-11-02T21:23:58.128Z,99.90
2022-11-02T21:26:28.519Z,99.90
2022-11-02T21:28:57.332Z,99.90
2022-11-02T21:31:26.157Z,99.90
2022-11-02T21:33:55.537Z,99.90
2022-11-02T21:36:25.209Z,99.90
2022-11-02T21:38:54.270Z,99.90
2022-11-02T21:41:28.318Z,99.90
2022-11-02T21:43:58.461Z,99.90
2022-11-02T21:46:27.097Z,99.90
2022-11-02T21:48:57.045Z,99.90
2022-11-02T21:51:25.838Z,99.90
2022-11-02T21:53:57.718Z,99.90
2022-11-02T21:56:27.872Z,99.90
2022-11-02T21:58:58.164Z,99.90
2022-11-02T22:01:49.447Z,99.90
2022-11-02T22:04:25.101Z,99.90
2022-11-02T22:06:54.911Z,99.90
2022-11-02T22:09:25.101Z,99.90
2022-11-02T22:12:16.554Z,1.00
2022-11-02T22:14:45.740Z,1.00
2022-11-02T22:17:35.482Z,1.00
2022-11-02T22:20:04.605Z,1.00
2022-11-02T22:22:33.199Z,1.00
2022-11-02T22:25:02.032Z,1.00
2022-11-02T22:27:30.847Z,1.00
2022-11-02T22:30:00.917Z,99.90
2022-11-02T22:32:29.649Z,99.90
2022-11-02T22:34:58.431Z,99.90
2022-11-02T22:37:45.167Z,99.90
2022-11-02T22:40:13.781Z,99.90
2022-11-02T22:42:42.722Z,99.90
2022-11-02T22:45:13.211Z,99.90
2022-11-02T22:47:42.413Z,99.90
2022-11-02T22:50:12.205Z,99.90
2022-11-02T22:52:40.811Z,53.40
2022-11-02T22:55:10.667Z,1.00
2022-11-02T22:57:39.214Z,99.90
2022-11-02T23:00:08.783Z,19.40
2022-11-02T23:02:38.798Z,99.90
2022-11-02T23:05:08.571Z,99.90
2022-11-02T23:07:37.686Z,99.90
2022-11-02T23:10:28.614Z,1.00
2022-11-02T23:12:57.069Z,1.00
2022-11-02T23:15:25.955Z,99.90
2022-11-02T23:17:55.971Z,99.90
2022-11-02T23:20:23.565Z,99.90
2022-11-02T23:23:12.115Z,99.90
2022-11-02T23:25:40.788Z,1.00
2022-11-02T23:28:27.134Z,99.90
2022-11-02T23:31:13.510Z,99.90
2022-11-02T23:33:44.896Z,1.00
2022-11-02T23:36:13.327Z,99.90
2022-11-02T23:39:01.058Z,99.90
2022-11-02T23:41:30.948Z,99.90
2022-11-02T23:44:14.057Z,1.00
2022-11-02T23:46:43.936Z,1.00
2022-11-02T23:49:14.615Z,99.90
2022-11-02T23:52:06.035Z,1.00
2022-11-02T23:54:52.065Z,87.20
2022-11-02T23:57:22.695Z,99.90
2022-11-02T23:59:51.691Z,99.90
